Details From KPSP - Palm Springs Intl
To KPGA - Page Muni
Flight Number -
Tags Decoded
Created
Modified
Stats Distance 326 nm / 604 km
Max Altitude 0 ft / 0 m
Waypoints 8
Social Downloads 1
Likes 0
Share VATSIM

Download

Looking for another format? Having issues loading an existing format? Contact us
Advertisement - Login to hide

Notes

Decoded

Route

KPSP TNP EED PGS GCN KLIFF CADRI KPGA

ID Type Via Altitude Latitude Longitude Leg Dist Tot Dist Heading (true) Name
O KPSP APT - 0 ft / 0 m 33.83517˚ -116.50967˚ - 0 nm - -
TNP VOR - 0 ft / 0 m 34.11222˚ -115.76992˚ 40 nm 40 nm 65° / 66° TWENTYNINE PALMS VORTAC
EED VOR - 0 ft / 0 m 34.76600˚ -114.47411˚ 75 nm 115 nm 58° / 59° NEEDLES VORTAC
PGS VOR - 0 ft / 0 m 35.62472˚ -113.54447˚ 68 nm 184 nm 41° / 42° PEACH SPRINGS VORTAC
GCN VOR - 0 ft / 0 m 35.96033˚ -112.14606˚ 71 nm 255 nm 73° / 74° GRAND CANYON VOR-DME
KLIFF FIX - 0 ft / 0 m 36.65206˚ -111.65031˚ 47 nm 303 nm 30° / 30° -
CADRI FIX - 0 ft / 0 m 36.78869˚ -111.41828˚ 13 nm 317 nm 54° / 54° -
O KPGA APT - 0 ft / 0 m 36.92917˚ -111.45352˚ 8 nm 326 nm 349° / 349° PAGE MUNI

Altitude Profile

Advertisement - Login to hide

Weather


0- 5 10 15 20 25 30 35+ Temperature / ° C

Clouds and Precipitation
Forecast for 2017-12-13 06:00 UTC. Updated 12 minutes ago

Ground ~20,000 ft ~40,000 ft Winds

KPSP

Details ICAO KPSP (PSP)
Name Palm Springs Intl
Region United States
Timezone America/Los_Angeles (UTC-8.0)
Stats Elevation 477 ft / 145 m (AMSL)
Location 33.829677° -116.506218°
Runways 2
Magnetic Variation 11.580° E

METAR

KPSP 130053Z 00000KT 10SM CLR 23/M06 A3010 RMK AO2 SLP191 T02281061

Decode

TAF

KPSP 122327Z 1300/1324 VRB05KT P6SM SKC

Decode

Departure Runways

ID Width Length Bearing (true) Bearing (mag) Surface Threshold Offset Overrun Length
13L 75 ft / 23 m 4,958 ft / 1,511 m 143.52° 131.94° Asphalt 0 ft / 0 m 151 ft / 46 m
13R 151 ft / 46 m 10,012 ft / 3,052 m 143.52° 131.94° Asphalt 2,999 ft / 914 m 200 ft / 61 m
31L 151 ft / 46 m 10,012 ft / 3,052 m 323.53° 311.95° Asphalt 1,499 ft / 457 m 200 ft / 61 m
31R 75 ft / 23 m 4,958 ft / 1,511 m 323.53° 311.95° Asphalt 0 ft / 0 m 151 ft / 46 m

KPGA

Details ICAO KPGA (PGA)
Name PAGE MUNI
Region United States
Timezone America/Denver (UTC-7.0)
Stats Elevation 4,313 ft / 1,315 m (AMSL)
Location 36.927176° -111.448815°
Runways 2
Magnetic Variation 10.662° E

METAR

KPGA 130053Z AUTO 00000KT 9SM CLR 05/M08 A3033 RMK AO2 SLP278 T00501083 TSNO

Decode

TAF

KPGA 122327Z 1300/1324 VRB05KT P6SM SKC

Decode

Destination Runways

ID Width Length Bearing (true) Bearing (mag) Surface Threshold Offset Overrun Length
07 100 ft / 30 m 2,196 ft / 669 m 82.10° 71.44° Asphalt 588 ft / 179 m 0 ft / 0 m
15 150 ft / 46 m 5,959 ft / 1,816 m 170.27° 159.61° Asphalt 0 ft / 0 m 0 ft / 0 m
25 100 ft / 30 m 2,196 ft / 669 m 262.10° 251.44° Asphalt 0 ft / 0 m 0 ft / 0 m
33 150 ft / 46 m 5,959 ft / 1,816 m 350.27° 339.61° Asphalt 0 ft / 0 m 0 ft / 0 m